Time;durP1;ratioP1;P1;durP2;ratioP2;P2;SDS_P1;SDS_P2;PMS_P1;PMS_P2;Temp;Humidity;BMP_temperature;BMP_pressure;BME280_temperature;BME280_humidity;BME280_pressure;Samples;Min_cycle;Max_cycle;Signal;HPM_P1;HPM_P2
2023/07/26 00:00:06;;;;;;;;;;;;;;;25.30;40.07;100028.61;2395162;74;51485;-76
2023/07/26 00:03:08;;;;;;;;;;;;;;;25.29;40.09;100041.34;2361653;74;50050;-76
2023/07/26 00:06:09;;;;;;;;;;;;;;;25.29;40.08;100036.45;2389017;73;51198;-76
2023/07/26 00:09:11;;;;;;;;;;;;;;;25.30;40.04;100046.21;2361555;74;50446;-75
2023/07/26 00:12:13;;;;;;;;;;;;;;;25.28;40.06;100034.29;2395024;73;50768;-76
2023/07/26 00:15:14;;;;;;;;;;;;;;;25.28;40.06;100045.13;2361711;74;49879;-75
2023/07/26 00:18:16;;;;;;;;;;;;;;;25.28;40.07;100044.27;2389919;73;51719;-75
2023/07/26 00:21:17;;;;;;;;;;;;;;;25.28;40.05;100057.30;2361430;74;50661;-76
2023/07/26 00:24:19;;;;;;;;;;;;;;;25.28;40.03;100055.95;2361527;74;50799;-75
2023/07/26 00:27:21;;;;;;;;;;;;;;;25.27;40.05;100054.29;2334699;74;51654;-75
2023/07/26 00:30:22;;;;;;;;;;;;;;;25.27;40.05;100048.06;2389240;74;51202;-75
2023/07/26 00:33:24;;;;;;;;;;;;;;;25.27;40.03;100049.41;2361353;74;50726;-77
2023/07/26 00:36:25;;;;;;;;;;;;;;;25.27;40.06;100057.53;2361359;74;51458;-76
2023/07/26 00:39:27;;;;;;;;;;;;;;;25.26;40.07;100057.26;2394894;74;50752;-76
2023/07/26 00:42:28;;;;;;;;;;;;;;;25.26;40.04;100058.08;2334649;74;52483;-77
2023/07/26 00:45:30;;;;;;;;;;;;;;;25.25;40.04;100068.59;2394920;74;51491;-75
2023/07/26 00:48:32;;;;;;;;;;;;;;;25.26;40.03;100067.55;2395464;73;50834;-75
2023/07/26 00:51:35;;;;;;;;;;;;;;;25.25;40.04;100073.20;2395044;74;50317;-75
2023/07/26 00:54:37;;;;;;;;;;;;;;;25.25;40.03;100074.55;2395366;73;22320;-76
2023/07/26 00:57:38;;;;;;;;;;;;;;;25.24;40.03;100073.73;2397140;73;51542;-75
2023/07/26 01:00:40;;;;;;;;;;;;;;;25.24;40.03;100080.50;2364064;74;51508;-78
2023/07/26 01:03:42;;;;;;;;;;;;;;;25.24;40.02;100077.80;2397431;74;50972;-76
2023/07/26 01:06:52;;;;;;;;;;;;;;;25.23;40.05;100080.22;2363861;74;50550;-75
2023/07/26 01:09:58;;;;;;;;;;;;;;;25.23;39.99;100077.52;2397529;74;50392;-75
2023/07/26 01:13:01;;;;;;;;;;;;;;;25.23;40.00;100082.94;2397456;74;51541;-76
2023/07/26 01:16:03;;;;;;;;;;;;;;;25.23;39.99;100085.64;2396423;74;50839;-76
2023/07/26 01:19:05;;;;;;;;;;;;;;;25.22;40.04;100083.16;2389178;74;52422;-75
2023/07/26 01:22:06;;;;;;;;;;;;;;;25.22;40.01;100088.03;2394991;73;51508;-75
2023/07/26 01:25:08;;;;;;;;;;;;;;;25.22;40.00;100089.93;2361600;74;51449;-76
2023/07/26 01:28:10;;;;;;;;;;;;;;;25.21;40.01;100086.41;2361382;74;50196;-76
2023/07/26 01:31:11;;;;;;;;;;;;;;;25.20;40.00;100085.59;2395067;74;50352;-75
2023/07/26 01:34:13;;;;;;;;;;;;;;;25.20;40.00;100081.53;2395029;74;50238;-76
2023/07/26 01:37:15;;;;;;;;;;;;;;;25.21;40.01;100083.70;2394954;73;50675;-76
2023/07/26 01:40:16;;;;;;;;;;;;;;;25.20;40.00;100089.66;2395166;74;50178;-75
2023/07/26 01:43:18;;;;;;;;;;;;;;;25.19;40.01;100093.41;2395144;73;50810;-75
2023/07/26 01:46:19;;;;;;;;;;;;;;;25.19;40.00;100089.88;2395240;74;50439;-75
2023/07/26 01:49:21;;;;;;;;;;;;;;;25.18;40.02;100089.06;2389653;74;50469;-75
2023/07/26 01:52:26;;;;;;;;;;;;;;;25.19;40.00;100092.59;2395115;74;50821;-75
2023/07/26 01:55:28;;;;;;;;;;;;;;;25.18;39.99;100092.31;2389124;74;52679;-76
2023/07/26 01:58:30;;;;;;;;;;;;;;;25.18;40.00;100092.31;2394886;74;50812;-75
2023/07/26 02:01:31;;;;;;;;;;;;;;;25.19;40.00;100093.94;2361541;73;51486;-76
2023/07/26 02:04:33;;;;;;;;;;;;;;;25.17;40.01;100097.41;2395185;74;50675;-74
2023/07/26 02:07:35;;;;;;;;;;;;;;;25.17;40.00;100091.46;2334683;74;50082;-75
2023/07/26 02:10:36;;;;;;;;;;;;;;;25.16;40.01;100093.89;2395149;73;50272;-75
2023/07/26 02:13:38;;;;;;;;;;;;;;;25.16;40.01;100089.83;2395112;73;50460;-75
2023/07/26 02:16:39;;;;;;;;;;;;;;;25.16;40.01;100095.25;2395600;74;50762;-77
2023/07/26 02:19:41;;;;;;;;;;;;;;;25.16;40.00;100096.59;2391259;73;52490;-76
2023/07/26 02:22:43;;;;;;;;;;;;;;;25.16;40.03;100099.84;2397460;74;51570;-76
2023/07/26 02:25:44;;;;;;;;;;;;;;;25.15;40.00;100108.98;2391517;73;51420;-77
2023/07/26 02:28:46;;;;;;;;;;;;;;;25.14;40.02;100105.45;2397157;74;51396;-77
2023/07/26 02:31:48;;;;;;;;;;;;;;;25.14;40.00;100100.58;2363589;74;52374;-75
2023/07/26 02:34:49;;;;;;;;;;;;;;;25.15;40.00;100114.39;2397445;74;51473;-76
2023/07/26 02:37:51;;;;;;;;;;;;;;;25.15;40.01;100113.03;2397141;74;50255;-76
2023/07/26 02:40:52;;;;;;;;;;;;;;;25.14;40.01;100120.88;2397447;74;50302;-75
2023/07/26 02:43:54;;;;;;;;;;;;;;;25.14;40.01;100118.99;2391536;74;49608;-75
2023/07/26 02:46:55;;;;;;;;;;;;;;;25.12;40.01;100118.41;2392802;74;50668;-76
2023/07/26 02:50:00;;;;;;;;;;;;;;;25.14;40.00;100123.59;2363507;74;51835;-76
2023/07/26 02:53:00;;;;;;;;;;;;;;;25.12;40.00;100119.75;2397682;74;22284;-76
2023/07/26 02:56:02;;;;;;;;;;;;;;;25.11;39.99;100124.89;2391342;74;52300;-75
2023/07/26 02:59:04;;;;;;;;;;;;;;;25.13;39.98;100131.44;2391260;74;51575;-76
2023/07/26 03:02:05;;;;;;;;;;;;;;;25.12;40.00;100127.06;2397243;73;51525;-76
2023/07/26 03:05:08;;;;;;;;;;;;;;;25.11;40.00;100134.36;2397298;73;51550;-77
2023/07/26 03:08:09;;;;;;;;;;;;;;;25.11;40.00;100151.14;2391152;74;49805;-76
2023/07/26 03:11:11;;;;;;;;;;;;;;;25.10;40.01;100144.06;2391334;74;51542;-76
2023/07/26 03:14:12;;;;;;;;;;;;;;;25.11;39.98;100150.61;2391614;74;50079;-75
2023/07/26 03:17:14;;;;;;;;;;;;;;;25.11;39.98;100151.14;2386518;73;50327;-77
2023/07/26 03:20:16;;;;;;;;;;;;;;;25.10;39.99;100150.84;2340428;75;50494;-77
2023/07/26 03:23:17;;;;;;;;;;;;;;;25.09;39.99;100147.31;2350021;75;50385;-76
2023/07/26 03:26:19;;;;;;;;;;;;;;;25.09;39.99;100162.20;2349774;74;50663;-76
2023/07/26 03:29:20;;;;;;;;;;;;;;;25.09;39.98;100162.20;2355701;75;50431;-77
2023/07/26 03:32:22;;;;;;;;;;;;;;;25.09;39.99;100168.97;2323383;75;49725;-76
2023/07/26 03:35:24;;;;;;;;;;;;;;;25.09;40.01;100173.56;2350062;75;50843;-75
2023/07/26 03:38:25;;;;;;;;;;;;;;;25.08;39.99;100175.99;2355525;74;51421;-76
2023/07/26 03:41:27;;;;;;;;;;;;;;;25.08;39.99;100185.47;2350215;75;50526;-76
2023/07/26 03:44:28;;;;;;;;;;;;;;;25.07;40.01;100184.62;2323608;75;50064;-76
2023/07/26 03:47:30;;;;;;;;;;;;;;;25.07;40.00;100189.22;2379546;74;51482;-76
2023/07/26 03:50:32;;;;;;;;;;;;;;;25.06;40.00;100189.75;2361383;74;51444;-75
2023/07/26 03:53:34;;;;;;;;;;;;;;;25.08;40.00;100196.30;2395045;74;50485;-76
2023/07/26 03:56:36;;;;;;;;;;;;;;;25.07;39.98;100207.63;2334802;74;52363;-75
2023/07/26 03:59:37;;;;;;;;;;;;;;;25.07;39.99;100204.11;2361364;74;51519;-75
2023/07/26 04:02:39;;;;;;;;;;;;;;;25.06;40.00;100214.11;2395159;73;50320;-76
2023/07/26 04:05:40;;;;;;;;;;;;;;;25.05;40.01;100217.89;2395326;73;50295;-75
2023/07/26 04:08:42;;;;;;;;;;;;;;;25.06;40.01;100224.13;2334631;74;51561;-75
2023/07/26 04:11:44;;;;;;;;;;;;;;;25.07;39.99;100220.34;2361618;74;51523;-76
2023/07/26 04:14:46;;;;;;;;;;;;;;;25.06;40.01;100221.42;2395039;74;50470;-75
2023/07/26 04:17:48;;;;;;;;;;;;;;;25.06;40.00;100225.48;2396060;73;51586;-75
2023/07/26 04:20:49;;;;;;;;;;;;;;;25.06;40.01;100218.72;2363734;74;51226;-76
2023/07/26 04:23:51;;;;;;;;;;;;;;;25.05;40.00;100219.25;2397580;74;50061;-75
2023/07/26 04:26:55;;;;;;;;;;;;;;;25.06;40.00;100229.00;2397215;73;50435;-75
2023/07/26 04:29:57;;;;;;;;;;;;;;;25.05;40.01;100238.70;2397467;73;51456;-76
2023/07/26 04:32:58;;;;;;;;;;;;;;;25.05;40.01;100237.34;2397335;73;51469;-75
2023/07/26 04:36:00;;;;;;;;;;;;;;;25.05;39.99;100234.14;2397351;74;50311;-75
2023/07/26 04:39:01;;;;;;;;;;;;;;;25.06;39.97;100235.77;2397211;74;50302;-76
2023/07/26 04:42:03;;;;;;;;;;;;;;;25.06;39.99;100236.31;2397541;74;50318;-74
2023/07/26 04:45:05;;;;;;;;;;;;;;;25.05;39.99;100237.34;2361703;73;51157;-75
2023/07/26 04:48:06;;;;;;;;;;;;;;;25.05;39.99;100230.08;2359658;74;50260;-75
2023/07/26 04:51:08;;;;;;;;;;;;;;;25.06;39.97;100236.31;2391970;74;50417;-76
2023/07/26 04:54:10;;;;;;;;;;;;;;;25.06;39.97;100234.42;2391644;74;50774;-76
2023/07/26 04:57:11;;;;;;;;;;;;;;;25.07;39.96;100229.28;2363427;74;51753;-75
2023/07/26 05:00:13;;;;;;;;;;;;;;;25.07;39.95;100242.00;2391937;74;51480;-76
2023/07/26 05:03:15;;;;;;;;;;;;;;;25.08;39.97;100236.37;2397582;74;50403;-75
2023/07/26 05:06:16;;;;;;;;;;;;;;;25.08;39.95;100234.20;2391490;73;50339;-76
2023/07/26 05:09:18;;;;;;;;;;;;;;;25.10;39.93;100241.52;2364098;74;51802;-76
2023/07/26 05:12:19;;;;;;;;;;;;;;;25.10;39.93;100237.47;2397816;74;50730;-75
2023/07/26 05:15:21;;;;;;;;;;;;;;;25.09;39.95;100235.83;2391813;74;51537;-75
2023/07/26 05:18:23;;;;;;;;;;;;;;;25.11;39.93;100239.12;2395494;74;51429;-76
2023/07/26 05:21:25;;;;;;;;;;;;;;;25.12;39.90;100246.18;2363766;74;52453;-75
2023/07/26 05:24:26;;;;;;;;;;;;;;;25.10;39.92;100250.50;2392078;73;50703;-75
2023/07/26 05:27:28;;;;;;;;;;;;;;;25.10;39.93;100250.50;2397661;73;50283;-75
2023/07/26 05:30:29;;;;;;;;;;;;;;;25.11;39.92;100244.01;2397648;74;50355;-76
2023/07/26 05:33:31;;;;;;;;;;;;;;;25.11;39.92;100249.42;2363841;74;50578;-76
2023/07/26 05:36:33;;;;;;;;;;;;;;;25.13;39.89;100258.67;2391675;74;50162;-75
2023/07/26 05:39:34;;;;;;;;;;;;;;;25.20;39.82;100251.27;2363642;74;51285;-75
2023/07/26 05:42:36;;;;;;;;;;;;;;;25.24;39.81;100253.80;2397418;74;50669;-76
2023/07/26 05:45:38;;;;;;;;;;;;;;;25.27;39.84;100253.86;2383534;74;52504;-75
2023/07/26 05:48:40;;;;;;;;;;;;;;;25.29;39.87;100257.98;2390709;74;49879;-75
2023/07/26 05:51:42;;;;;;;;;;;;;;;25.36;39.83;100260.58;2391573;74;50858;-75
2023/07/26 05:54:45;;;;;;;;;;;;;;;25.40;39.78;100261.19;2397594;74;50264;-75
2023/07/26 05:57:46;;;;;;;;;;;;;;;25.44;39.76;100253.43;2363424;74;51398;-75
2023/07/26 06:00:48;;;;;;;;;;;;;;;25.37;39.84;100253.55;2391585;74;50282;-75
2023/07/26 06:03:50;;;;;;;;;;;;;;;25.36;39.81;100261.39;2397361;73;50776;-76
2023/07/26 06:06:51;;;;;;;;;;;;;;;25.40;39.66;100267.96;2391386;74;50594;-75
2023/07/26 06:09:53;;;;;;;;;;;;;;;25.40;39.63;100272.02;2363743;74;51693;-75
2023/07/26 06:12:55;;;;;;;;;;;;;;;25.39;39.61;100272.28;2391705;73;51475;-75
2023/07/26 06:15:57;;;;;;;;;;;;;;;25.39;39.63;100269.03;2381473;73;51456;-75
2023/07/26 06:18:58;;;;;;;;;;;;;;;25.46;39.58;100277.55;2388431;74;51460;-76
2023/07/26 06:22:00;;;;;;;;;;;;;;;25.50;39.57;100278.73;2391581;74;51741;-76
2023/07/26 06:25:03;;;;;;;;;;;;;;;25.49;39.61;100276.56;2397537;74;51727;-75
2023/07/26 06:28:04;;;;;;;;;;;;;;;25.50;39.58;100276.03;2391360;74;50333;-76
2023/07/26 06:31:06;;;;;;;;;;;;;;;25.48;39.60;100271.37;2397464;73;50645;-76
2023/07/26 06:34:07;;;;;;;;;;;;;;;25.53;39.48;100272.30;2391486;74;50488;-76
2023/07/26 06:37:09;;;;;;;;;;;;;;;25.54;39.50;100267.19;2391194;73;50279;-75
2023/07/26 06:40:12;;;;;;;;;;;;;;;25.57;39.47;100274.02;2391734;73;50702;-76
2023/07/26 06:43:14;;;;;;;;;;;;;;;25.60;39.43;100270.28;2397610;74;51592;-76
2023/07/26 06:46:15;;;;;;;;;;;;;;;25.60;39.41;100268.11;2386106;74;52405;-76
2023/07/26 06:49:17;;;;;;;;;;;;;;;25.67;39.29;100267.99;2390455;74;51457;-76
2023/07/26 06:52:19;;;;;;;;;;;;;;;25.63;39.38;100256.80;2397159;74;51566;-75
2023/07/26 06:55:20;;;;;;;;;;;;;;;25.68;39.28;100273.16;2397201;74;51410;-75
2023/07/26 06:58:22;;;;;;;;;;;;;;;25.68;39.27;100270.45;2391181;74;52645;-76
2023/07/26 07:01:23;;;;;;;;;;;;;;;25.70;39.21;100276.45;2391392;74;51501;-76
2023/07/26 07:04:25;;;;;;;;;;;;;;;25.71;39.20;100282.16;2397128;73;51456;-76
2023/07/26 07:07:27;;;;;;;;;;;;;;;25.70;39.21;100279.16;2396991;74;50815;-75
2023/07/26 07:10:28;;;;;;;;;;;;;;;25.72;39.13;100283.00;2397278;74;50296;-76
2023/07/26 07:13:30;;;;;;;;;;;;;;;25.74;39.13;100282.20;2391521;74;50308;-75
2023/07/26 07:16:32;;;;;;;;;;;;;;;25.69;39.19;100284.30;2361048;74;50106;-75
2023/07/26 07:19:34;;;;;;;;;;;;;;;25.72;39.13;100287.07;2362016;74;51693;-76
2023/07/26 07:22:35;;;;;;;;;;;;;;;25.72;39.08;100286.53;2394870;74;51422;-75
2023/07/26 07:25:38;;;;;;;;;;;;;;;25.71;39.08;100284.86;2388896;74;51597;-75
2023/07/26 07:28:40;;;;;;;;;;;;;;;25.70;39.06;100285.13;2361442;74;51611;-75
2023/07/26 07:31:41;;;;;;;;;;;;;;;25.75;38.96;100271.67;2395139;73;51501;-75
2023/07/26 07:34:43;;;;;;;;;;;;;;;25.73;38.94;100285.99;2361465;74;50267;-75
2023/07/26 07:37:44;;;;;;;;;;;;;;;25.73;38.88;100285.99;2388966;74;52427;-76
2023/07/26 07:40:47;;;;;;;;;;;;;;;25.77;38.87;100292.05;2361663;74;49860;-75
2023/07/26 07:43:49;;;;;;;;;;;;;;;25.81;38.89;100293.74;2395240;73;50559;-76
2023/07/26 07:46:50;;;;;;;;;;;;;;;25.82;38.84;100295.41;2361681;74;50726;-76
2023/07/26 07:49:52;;;;;;;;;;;;;;;25.79;38.85;100295.86;2389558;74;52570;-75
2023/07/26 07:52:54;;;;;;;;;;;;;;;25.78;38.82;100289.62;2361466;74;51436;-76
2023/07/26 07:55:55;;;;;;;;;;;;;;;25.80;38.76;100292.92;2394796;74;51558;-75
2023/07/26 07:58:57;;;;;;;;;;;;;;;25.78;38.78;100292.34;2361173;74;50061;-75
2023/07/26 08:01:58;;;;;;;;;;;;;;;25.78;38.79;100303.72;2334792;74;51229;-75
2023/07/26 08:05:00;;;;;;;;;;;;;;;25.76;38.79;100297.16;2361103;74;50444;-75
2023/07/26 08:08:02;;;;;;;;;;;;;;;25.76;38.79;100302.59;2394556;74;50704;-75
2023/07/26 08:11:03;;;;;;;;;;;;;;;25.75;38.75;100302.30;2394837;74;50449;-75
2023/07/26 08:14:05;;;;;;;;;;;;;;;25.71;38.77;100302.48;2389107;74;50043;-75
2023/07/26 08:17:07;;;;;;;;;;;;;;;25.75;38.68;100306.91;2354654;74;50496;-75
2023/07/26 08:20:10;;;;;;;;;;;;;;;25.72;38.76;100304.69;2389343;74;50342;-75
2023/07/26 08:23:12;;;;;;;;;;;;;;;25.69;38.82;100303.78;2394940;74;50529;-75
2023/07/26 08:26:13;;;;;;;;;;;;;;;25.71;38.82;100314.67;2334761;74;52501;-75
2023/07/26 08:29:15;;;;;;;;;;;;;;;25.73;38.76;100311.20;2361586;74;50722;-75
2023/07/26 08:32:17;;;;;;;;;;;;;;;25.70;38.78;100304.91;2394975;74;51684;-75
2023/07/26 08:35:19;;;;;;;;;;;;;;;25.70;38.83;100304.09;2361648;74;50753;-76
2023/07/26 08:38:21;;;;;;;;;;;;;;;25.75;38.72;100313.14;2388884;74;49577;-77
2023/07/26 08:41:23;;;;;;;;;;;;;;;25.74;38.72;100306.59;2395097;74;51611;-75
2023/07/26 08:44:25;;;;;;;;;;;;;;;25.76;38.69;100302.59;2394977;74;51410;-75
2023/07/26 08:47:26;;;;;;;;;;;;;;;25.73;38.69;100300.90;2395691;74;49965;-76
2023/07/26 08:50:28;;;;;;;;;;;;;;;25.73;38.69;100308.48;2389311;74;50975;-76
2023/07/26 08:53:30;;;;;;;;;;;;;;;25.70;38.74;100313.04;2395333;73;51671;-76
2023/07/26 08:56:32;;;;;;;;;;;;;;;25.68;38.79;100308.92;2395148;74;50353;-76
2023/07/26 08:59:33;;;;;;;;;;;;;;;25.66;38.86;100309.14;2395895;74;50216;-76
2023/07/26 09:02:35;;;;;;;;;;;;;;;25.66;38.82;100303.73;2335247;74;51210;-76
2023/07/26 09:05:37;;;;;;;;;;;;;;;25.66;38.83;100305.08;2394962;74;50633;-76
2023/07/26 09:08:38;;;;;;;;;;;;;;;25.67;38.77;100302.69;2394705;74;52397;-76
2023/07/26 09:11:49;;;;;;;;;;;;;;;25.64;38.83;100311.30;2395209;74;51466;-76
2023/07/26 09:14:53;;;;;;;;;;;;;;;25.63;38.85;100308.27;2389119;74;52598;-76
2023/07/26 09:17:54;;;;;;;;;;;;;;;25.60;38.93;100304.16;2362473;74;50530;-76
2023/07/26 09:21:04;;;;;;;;;;;;;;;25.61;38.92;100307.69;2397416;74;50076;-76
2023/07/26 09:24:06;;;;;;;;;;;;;;;25.60;38.91;100310.11;2397356;74;50252;-76
2023/07/26 09:27:08;;;;;;;;;;;;;;;25.61;38.92;100310.39;2391257;74;51349;-76
2023/07/26 09:30:10;;;;;;;;;;;;;;;25.58;38.98;100311.69;2397425;74;51490;-76
2023/07/26 09:33:12;;;;;;;;;;;;;;;25.57;38.96;100310.59;2397362;74;50317;-76
2023/07/26 09:36:13;;;;;;;;;;;;;;;25.56;38.96;100309.77;2397249;74;50401;-76
2023/07/26 09:39:15;;;;;;;;;;;;;;;25.55;38.93;100306.75;2391608;74;51158;-77
2023/07/26 09:42:17;;;;;;;;;;;;;;;25.53;38.97;100320.25;2397599;73;52383;-75
2023/07/26 09:45:19;;;;;;;;;;;;;;;25.54;38.92;100320.02;2397462;74;50341;-76
2023/07/26 09:48:21;;;;;;;;;;;;;;;25.58;38.86;100328.48;2389242;74;50684;-76
2023/07/26 09:51:24;;;;;;;;;;;;;;;25.59;38.79;100322.84;2391330;73;51158;-76
2023/07/26 09:54:27;;;;;;;;;;;;;;;25.59;38.78;100316.61;2397147;73;52388;-75
2023/07/26 09:57:29;;;;;;;;;;;;;;;25.55;38.82;100317.59;2391170;73;51498;-76
2023/07/26 10:00:31;;;;;;;;;;;;;;;25.57;38.75;100309.23;2397482;74;51546;-77
2023/07/26 10:03:34;;;;;;;;;;;;;;;25.55;38.76;100316.77;2391394;73;52523;-77
2023/07/26 10:06:35;;;;;;;;;;;;;;;25.51;38.84;100307.46;2391495;73;50899;-76
2023/07/26 10:09:39;;;;;;;;;;;;;;;25.52;38.89;100296.94;2397426;74;50315;-76
2023/07/26 10:12:40;;;;;;;;;;;;;;;25.52;38.83;100305.06;2397505;74;51545;-76
2023/07/26 10:15:46;;;;;;;;;;;;;;;25.54;38.83;100305.12;2397355;74;50259;-76
2023/07/26 10:18:46;;;;;;;;;;;;;;;25.55;38.79;100296.45;2395829;73;22558;-75
2023/07/26 10:21:48;;;;;;;;;;;;;;;25.50;38.83;100298.52;2394934;73;49896;-75
2023/07/26 10:24:49;;;;;;;;;;;;;;;25.52;38.86;100296.94;2395021;74;50378;-76
2023/07/26 10:27:52;;;;;;;;;;;;;;;25.55;38.82;100293.75;2389105;73;51548;-75
2023/07/26 10:30:53;;;;;;;;;;;;;;;25.53;38.86;100290.45;2395267;74;50700;-74
2023/07/26 10:33:55;;;;;;;;;;;;;;;25.54;38.83;100288.86;2395056;74;50698;-75
2023/07/26 10:36:57;;;;;;;;;;;;;;;25.55;38.79;100288.33;2394724;74;51591;-75
2023/07/26 10:39:58;;;;;;;;;;;;;;;25.56;38.75;100280.48;2389072;73;51220;-76
2023/07/26 10:43:00;;;;;;;;;;;;;;;25.56;38.72;100283.19;2395010;74;51469;-76
2023/07/26 10:46:02;;;;;;;;;;;;;;;25.55;38.74;100273.42;2395012;74;50687;-76
2023/07/26 10:49:17;;;;;;;;;;;;;;;25.52;38.79;100282.03;2390293;74;51505;-76
2023/07/26 10:52:20;;;;;;;;;;;;;;;25.55;38.74;100274.78;2363723;74;51052;-76
2023/07/26 10:55:23;;;;;;;;;;;;;;;25.55;38.70;100273.42;2391483;74;50359;-75
2023/07/26 10:58:24;;;;;;;;;;;;;;;25.53;38.76;100277.72;2397082;73;50289;-76
2023/07/26 11:01:30;;;;;;;;;;;;;;;25.53;38.77;100278.25;2391529;73;50375;-76
2023/07/26 11:04:32;;;;;;;;;;;;;;;25.51;38.76;100279.86;2363593;74;52541;-76
2023/07/26 11:07:49;;;;;;;;;;;;;;;25.51;38.77;100280.38;2397307;74;51476;-75
2023/07/26 11:10:51;;;;;;;;;;;;;;;25.50;38.78;100276.03;2397369;74;50184;-76
2023/07/26 11:13:53;;;;;;;;;;;;;;;25.48;38.78;100279.50;2397346;73;50522;-76
2023/07/26 11:16:54;;;;;;;;;;;;;;;25.48;38.79;100274.90;2354726;74;51258;-76
2023/07/26 11:19:56;;;;;;;;;;;;;;;25.51;38.76;100277.16;2396424;74;50310;-77
2023/07/26 11:22:58;;;;;;;;;;;;;;;25.49;38.78;100276.56;2397333;74;50430;-75
2023/07/26 11:26:00;;;;;;;;;;;;;;;25.47;38.81;100268.38;2391366;73;51716;-76
2023/07/26 11:29:01;;;;;;;;;;;;;;;25.48;38.79;100267.31;2391170;73;51754;-76
2023/07/26 11:32:03;;;;;;;;;;;;;;;25.48;38.82;100274.08;2397342;74;50527;-77
2023/07/26 11:35:05;;;;;;;;;;;;;;;25.51;38.76;100273.59;2391418;74;51462;-76
2023/07/26 11:38:07;;;;;;;;;;;;;;;25.49;38.77;100282.52;2397337;74;50769;-75
2023/07/26 11:41:08;;;;;;;;;;;;;;;25.46;38.76;100318.19;2391422;74;50343;-76
2023/07/26 11:44:11;;;;;;;;;;;;;;;25.44;38.79;100320.33;2397474;73;50340;-75
2023/07/26 11:47:13;;;;;;;;;;;;;;;25.41;38.78;100312.97;2387208;74;50458;-75
2023/07/26 11:50:16;;;;;;;;;;;;;;;25.40;38.78;100290.16;2396467;73;50775;-74
2023/07/26 11:53:17;;;;;;;;;;;;;;;25.39;38.76;100283.93;2363520;74;51822;-76
2023/07/26 11:56:21;;;;;;;;;;;;;;;25.40;38.74;100280.15;2397124;73;51389;-76
2023/07/26 11:59:22;;;;;;;;;;;;;;;25.41;38.73;100285.88;2397081;73;51590;-75
2023/07/26 12:02:24;;;;;;;;;;;;;;;25.41;38.75;100281.81;2397421;73;51500;-76
2023/07/26 12:05:28;;;;;;;;;;;;;;;25.41;38.76;100277.75;2391299;74;52398;-75
2023/07/26 12:08:30;;;;;;;;;;;;;;;25.43;38.76;100273.44;2391335;73;51641;-75
2023/07/26 12:11:31;;;;;;;;;;;;;;;25.45;38.75;100278.09;2397380;73;51551;-75
2023/07/26 12:14:33;;;;;;;;;;;;;;;25.45;38.77;100272.67;2397196;74;50876;-75
2023/07/26 12:17:34;;;;;;;;;;;;;;;25.44;38.84;100275.64;2354469;74;52628;-75
2023/07/26 12:20:36;;;;;;;;;;;;;;;25.43;38.86;100285.63;2389335;74;51577;-75
2023/07/26 12:23:57;;;;;;;;;;;;;;;25.40;38.89;100293.69;2361225;74;51638;-75
2023/07/26 12:27:00;;;;;;;;;;;;;;;25.38;38.93;100285.00;2394604;74;52013;-76
2023/07/26 12:30:01;;;;;;;;;;;;;;;25.38;38.95;100293.12;2334906;74;52452;-76
2023/07/26 12:33:11;;;;;;;;;;;;;;;25.38;38.96;100282.80;2394884;74;51592;-75
2023/07/26 12:36:12;;;;;;;;;;;;;;;25.38;38.97;100291.77;2394747;74;50839;-75
2023/07/26 12:39:18;;;;;;;;;;;;;;;25.37;39.02;100293.36;2361192;74;51506;-76
2023/07/26 12:42:20;;;;;;;;;;;;;;;25.37;39.04;100282.52;2394827;74;52360;-75
2023/07/26 12:45:22;;;;;;;;;;;;;;;25.41;38.99;100277.75;2361176;74;50755;-75
2023/07/26 12:48:23;;;;;;;;;;;;;;;25.43;38.99;100278.84;2362236;74;50701;-76
2023/07/26 12:51:25;;;;;;;;;;;;;;;25.43;39.01;100281.56;2394806;74;51532;-75
2023/07/26 12:54:27;;;;;;;;;;;;;;;25.45;38.98;100284.05;2361340;74;51568;-75
2023/07/26 12:57:29;;;;;;;;;;;;;;;25.48;38.95;100279.50;2394531;74;50749;-75
2023/07/26 13:00:30;;;;;;;;;;;;;;;25.48;38.98;100278.14;2361313;74;51522;-75
2023/07/26 13:03:32;;;;;;;;;;;;;;;25.48;38.99;100270.84;2394770;74;50714;-76
2023/07/26 13:06:34;;;;;;;;;;;;;;;25.48;39.00;100270.02;2334541;74;51125;-75
2023/07/26 13:09:36;;;;;;;;;;;;;;;25.49;38.99;100275.20;2394888;74;51597;-75
2023/07/26 13:12:37;;;;;;;;;;;;;;;25.48;39.00;100264.59;2361388;74;51748;-75
2023/07/26 13:15:39;;;;;;;;;;;;;;;25.48;39.02;100265.42;2394775;73;50621;-76
2023/07/26 13:18:41;;;;;;;;;;;;;;;25.49;39.02;100264.91;2330865;74;51767;-77
2023/07/26 13:21:42;;;;;;;;;;;;;;;25.48;39.03;100259.18;2361495;74;50437;-75
2023/07/26 13:24:44;;;;;;;;;;;;;;;25.43;39.10;100265.31;2394966;74;50283;-75
2023/07/26 13:27:45;;;;;;;;;;;;;;;25.40;39.14;100277.44;2361141;74;49863;-76
2023/07/26 13:30:47;;;;;;;;;;;;;;;25.38;39.16;100290.92;2389119;74;51229;-75
2023/07/26 13:33:49;;;;;;;;;;;;;;;25.38;39.16;100293.12;2361342;74;50269;-75
2023/07/26 13:36:52;;;;;;;;;;;;;;;25.43;39.13;100295.10;2361158;74;50528;-75
2023/07/26 13:39:53;;;;;;;;;;;;;;;25.45;39.08;100288.11;2394973;74;50682;-74
2023/07/26 13:42:55;;;;;;;;;;;;;;;25.47;39.06;100292.77;2335023;74;52578;-75
2023/07/26 13:45:57;;;;;;;;;;;;;;;25.50;39.00;100296.34;2395081;73;51624;-76
2023/07/26 13:48:58;;;;;;;;;;;;;;;25.49;39.03;100308.25;2395566;74;51446;-74
2023/07/26 13:52:00;;;;;;;;;;;;;;;25.50;39.00;100303.94;2383563;74;51391;-75
2023/07/26 13:55:01;;;;;;;;;;;;;;;25.49;39.00;100310.96;2389731;74;51165;-77
2023/07/26 13:58:03;;;;;;;;;;;;;;;25.48;39.05;100305.23;2361301;74;51712;-75
2023/07/26 14:01:05;;;;;;;;;;;;;;;25.49;39.05;100311.78;2361524;74;51529;-75
2023/07/26 14:04:06;;;;;;;;;;;;;;;25.49;39.06;100319.91;2394943;74;51553;-76
2023/07/26 14:07:08;;;;;;;;;;;;;;;25.45;39.11;100316.55;2388809;73;52371;-76
2023/07/26 14:10:09;;;;;;;;;;;;;;;25.39;39.22;100315.62;2361521;74;50351;-76
2023/07/26 14:13:11;;;;;;;;;;;;;;;25.38;39.26;100312.09;2361346;74;51387;-76
2023/07/26 14:16:12;;;;;;;;;;;;;;;25.36;39.30;100325.04;2361180;74;50636;-75
2023/07/26 14:19:14;;;;;;;;;;;;;;;25.33;39.32;100347.19;2388920;73;52410;-74
2023/07/26 14:22:16;;;;;;;;;;;;;;;25.31;39.38;100346.59;2362119;74;50198;-75
2023/07/26 14:25:18;;;;;;;;;;;;;;;25.28;39.44;100357.05;2395659;74;50650;-76
2023/07/26 14:28:19;;;;;;;;;;;;;;;25.31;39.41;100345.77;2361243;74;51636;-75
2023/07/26 14:31:21;;;;;;;;;;;;;;;25.36;39.32;100360.25;2389231;74;50093;-76
2023/07/26 14:34:23;;;;;;;;;;;;;;;25.35;39.30;100350.45;2361523;74;50719;-76
2023/07/26 14:37:24;;;;;;;;;;;;;;;25.35;39.31;100347.75;2394690;74;51561;-76
2023/07/26 14:40:26;;;;;;;;;;;;;;;25.38;39.26;100343.23;2361469;74;50110;-75
2023/07/26 14:43:28;;;;;;;;;;;;;;;25.40;39.18;100347.86;2388979;74;51256;-75
2023/07/26 14:46:29;;;;;;;;;;;;;;;25.40;39.19;100336.21;2394767;73;51533;-76
2023/07/26 14:49:31;;;;;;;;;;;;;;;25.36;39.24;100345.35;2361320;74;50274;-75
2023/07/26 14:52:32;;;;;;;;;;;;;;;25.36;39.28;100349.95;2361981;74;50321;-75
2023/07/26 14:55:34;;;;;;;;;;;;;;;25.37;39.25;100366.48;2395747;74;50226;-76
2023/07/26 14:58:36;;;;;;;;;;;;;;;25.34;39.29;100365.06;2361140;74;52300;-75
2023/07/26 15:01:37;;;;;;;;;;;;;;;25.34;39.28;100373.20;2361574;74;50667;-75
2023/07/26 15:04:39;;;;;;;;;;;;;;;25.39;39.23;100373.31;2361313;74;49985;-77
2023/07/26 15:07:40;;;;;;;;;;;;;;;25.43;39.20;100377.72;2334589;74;50949;-75
2023/07/26 15:10:42;;;;;;;;;;;;;;;25.43;39.21;100373.66;2361287;74;50562;-75
2023/07/26 15:13:43;;;;;;;;;;;;;;;25.41;39.31;100383.39;2361385;74;50751;-75
2023/07/26 15:16:45;;;;;;;;;;;;;;;25.36;39.44;100385.98;2383029;73;50790;-75
2023/07/26 15:19:47;;;;;;;;;;;;;;;25.33;39.50;100383.75;2389768;74;51724;-74
2023/07/26 15:22:52;;;;;;;;;;;;;;;25.32;39.53;100391.55;2361477;74;51484;-75
2023/07/26 15:25:51;;;;;;;;;;;;;;;25.32;39.53;100394.80;2392963;73;21848;-75
2023/07/26 15:28:53;;;;;;;;;;;;;;;25.30;39.57;100380.13;2386108;74;51331;-75
2023/07/26 15:31:55;;;;;;;;;;;;;;;25.30;39.54;100384.73;2389056;74;51499;-77